sensor_id;sensor_type;location;lat;lon;timestamp;P1;durP1;ratioP1;P2;durP2;ratioP2
54657;SDS011;56972;43.886;20.354;2022-07-01T00:00:51;36.00;;;19.45;;
54657;SDS011;56972;43.886;20.354;2022-07-01T00:03:17;16.75;;;11.60;;
54657;SDS011;56972;43.886;20.354;2022-07-01T00:05:43;17.67;;;12.15;;
54657;SDS011;56972;43.886;20.354;2022-07-01T00:08:09;21.15;;;10.25;;
54657;SDS011;56972;43.886;20.354;2022-07-01T00:10:35;14.30;;;10.20;;
54657;SDS011;56972;43.886;20.354;2022-07-01T00:13:02;17.42;;;11.07;;
54657;SDS011;56972;43.886;20.354;2022-07-01T00:15:29;15.98;;;10.52;;
54657;SDS011;56972;43.886;20.354;2022-07-01T00:17:55;17.17;;;10.85;;
54657;SDS011;56972;43.886;20.354;2022-07-01T00:20:22;13.88;;;10.40;;
54657;SDS011;56972;43.886;20.354;2022-07-01T00:22:48;11.60;;;10.05;;
54657;SDS011;56972;43.886;20.354;2022-07-01T00:25:15;17.20;;;10.55;;
54657;SDS011;56972;43.886;20.354;2022-07-01T00:27:41;13.00;;;10.02;;
54657;SDS011;56972;43.886;20.354;2022-07-01T00:30:08;16.88;;;10.82;;
54657;SDS011;56972;43.886;20.354;2022-07-01T00:32:35;16.48;;;11.27;;
54657;SDS011;56972;43.886;20.354;2022-07-01T00:35:01;19.02;;;10.65;;
54657;SDS011;56972;43.886;20.354;2022-07-01T00:37:27;14.45;;;9.10;;
54657;SDS011;56972;43.886;20.354;2022-07-01T00:39:53;15.60;;;9.75;;
54657;SDS011;56972;43.886;20.354;2022-07-01T00:42:19;14.05;;;9.23;;
54657;SDS011;56972;43.886;20.354;2022-07-01T00:44:45;20.88;;;11.70;;
54657;SDS011;56972;43.886;20.354;2022-07-01T00:47:12;21.52;;;9.95;;
54657;SDS011;56972;43.886;20.354;2022-07-01T00:49:40;17.05;;;11.80;;
54657;SDS011;56972;43.886;20.354;2022-07-01T00:52:07;18.45;;;10.73;;
54657;SDS011;56972;43.886;20.354;2022-07-01T00:54:35;16.40;;;10.93;;
54657;SDS011;56972;43.886;20.354;2022-07-01T00:57:05;16.95;;;10.45;;
54657;SDS011;56972;43.886;20.354;2022-07-01T00:59:31;22.70;;;10.43;;
54657;SDS011;56972;43.886;20.354;2022-07-01T01:02:00;14.32;;;10.88;;
54657;SDS011;56972;43.886;20.354;2022-07-01T01:04:26;15.77;;;10.68;;
54657;SDS011;56972;43.886;20.354;2022-07-01T01:06:52;16.98;;;10.55;;
54657;SDS011;56972;43.886;20.354;2022-07-01T01:09:18;16.70;;;10.00;;
54657;SDS011;56972;43.886;20.354;2022-07-01T01:11:44;15.82;;;10.63;;
54657;SDS011;56972;43.886;20.354;2022-07-01T01:14:10;17.75;;;10.18;;
54657;SDS011;56972;43.886;20.354;2022-07-01T01:16:37;14.95;;;10.15;;
54657;SDS011;56972;43.886;20.354;2022-07-01T01:19:07;12.80;;;7.82;;
54657;SDS011;56972;43.886;20.354;2022-07-01T01:21:33;15.70;;;9.95;;
54657;SDS011;56972;43.886;20.354;2022-07-01T01:23:59;14.27;;;8.63;;
54657;SDS011;56972;43.886;20.354;2022-07-01T01:26:25;15.23;;;8.48;;
54657;SDS011;56972;43.886;20.354;2022-07-01T01:28:51;15.25;;;7.93;;
54657;SDS011;56972;43.886;20.354;2022-07-01T01:31:18;23.70;;;8.77;;
54657;SDS011;56972;43.886;20.354;2022-07-01T01:33:55;14.60;;;8.02;;
54657;SDS011;56972;43.886;20.354;2022-07-01T01:36:22;18.92;;;8.73;;
54657;SDS011;56972;43.886;20.354;2022-07-01T01:38:48;19.80;;;8.45;;
54657;SDS011;56972;43.886;20.354;2022-07-01T01:41:14;11.27;;;8.70;;
54657;SDS011;56972;43.886;20.354;2022-07-01T01:43:39;14.43;;;8.38;;
54657;SDS011;56972;43.886;20.354;2022-07-01T01:46:05;15.77;;;8.52;;
54657;SDS011;56972;43.886;20.354;2022-07-01T01:48:31;11.98;;;7.80;;
54657;SDS011;56972;43.886;20.354;2022-07-01T01:50:57;12.13;;;8.32;;
54657;SDS011;56972;43.886;20.354;2022-07-01T01:53:22;17.80;;;8.68;;
54657;SDS011;56972;43.886;20.354;2022-07-01T01:55:49;21.13;;;8.73;;
54657;SDS011;56972;43.886;20.354;2022-07-01T01:58:15;13.77;;;8.73;;
54657;SDS011;56972;43.886;20.354;2022-07-01T02:00:40;15.70;;;8.07;;
54657;SDS011;56972;43.886;20.354;2022-07-01T02:03:06;14.77;;;8.75;;
54657;SDS011;56972;43.886;20.354;2022-07-01T02:05:32;20.90;;;13.15;;
54657;SDS011;56972;43.886;20.354;2022-07-01T02:08:00;15.25;;;12.25;;
54657;SDS011;56972;43.886;20.354;2022-07-01T02:10:27;21.67;;;10.98;;
54657;SDS011;56972;43.886;20.354;2022-07-01T02:12:52;16.67;;;9.38;;
54657;SDS011;56972;43.886;20.354;2022-07-01T02:15:18;19.08;;;8.70;;
54657;SDS011;56972;43.886;20.354;2022-07-01T02:17:44;20.67;;;8.63;;
54657;SDS011;56972;43.886;20.354;2022-07-01T02:20:10;14.80;;;8.10;;
54657;SDS011;56972;43.886;20.354;2022-07-01T02:22:40;12.52;;;8.52;;
54657;SDS011;56972;43.886;20.354;2022-07-01T02:25:06;20.58;;;8.93;;
54657;SDS011;56972;43.886;20.354;2022-07-01T02:27:32;14.93;;;8.45;;
54657;SDS011;56972;43.886;20.354;2022-07-01T02:29:59;13.45;;;8.05;;
54657;SDS011;56972;43.886;20.354;2022-07-01T02:32:25;10.73;;;7.57;;
54657;SDS011;56972;43.886;20.354;2022-07-01T02:34:51;20.48;;;7.95;;
54657;SDS011;56972;43.886;20.354;2022-07-01T02:37:17;22.65;;;10.85;;
54657;SDS011;56972;43.886;20.354;2022-07-01T02:39:43;19.98;;;11.68;;
54657;SDS011;56972;43.886;20.354;2022-07-01T02:42:09;21.23;;;11.55;;
54657;SDS011;56972;43.886;20.354;2022-07-01T02:44:59;19.45;;;12.23;;
54657;SDS011;56972;43.886;20.354;2022-07-01T02:47:30;21.92;;;12.27;;
54657;SDS011;56972;43.886;20.354;2022-07-01T02:49:56;19.15;;;12.50;;
54657;SDS011;56972;43.886;20.354;2022-07-01T02:52:22;22.67;;;12.82;;
54657;SDS011;56972;43.886;20.354;2022-07-01T02:54:48;19.13;;;11.90;;
54657;SDS011;56972;43.886;20.354;2022-07-01T02:57:14;21.27;;;12.32;;
54657;SDS011;56972;43.886;20.354;2022-07-01T02:59:40;20.80;;;12.15;;
54657;SDS011;56972;43.886;20.354;2022-07-01T03:02:06;16.50;;;12.30;;
54657;SDS011;56972;43.886;20.354;2022-07-01T03:04:32;21.85;;;14.68;;
54657;SDS011;56972;43.886;20.354;2022-07-01T03:06:58;20.40;;;12.10;;
54657;SDS011;56972;43.886;20.354;2022-07-01T03:09:24;18.35;;;10.82;;
54657;SDS011;56972;43.886;20.354;2022-07-01T03:11:51;18.17;;;12.15;;
54657;SDS011;56972;43.886;20.354;2022-07-01T03:14:17;17.85;;;11.98;;
54657;SDS011;56972;43.886;20.354;2022-07-01T03:16:43;14.55;;;11.40;;
54657;SDS011;56972;43.886;20.354;2022-07-01T03:19:12;18.08;;;11.52;;
54657;SDS011;56972;43.886;20.354;2022-07-01T03:21:38;15.65;;;11.23;;
54657;SDS011;56972;43.886;20.354;2022-07-01T03:24:05;16.85;;;12.70;;
54657;SDS011;56972;43.886;20.354;2022-07-01T03:26:31;19.40;;;12.43;;
54657;SDS011;56972;43.886;20.354;2022-07-01T03:28:57;21.60;;;13.85;;
54657;SDS011;56972;43.886;20.354;2022-07-01T03:31:24;17.85;;;11.30;;
54657;SDS011;56972;43.886;20.354;2022-07-01T03:33:50;20.48;;;11.65;;
54657;SDS011;56972;43.886;20.354;2022-07-01T03:36:17;21.13;;;11.52;;
54657;SDS011;56972;43.886;20.354;2022-07-01T03:38:43;22.98;;;12.73;;
54657;SDS011;56972;43.886;20.354;2022-07-01T03:41:09;17.17;;;11.35;;
54657;SDS011;56972;43.886;20.354;2022-07-01T03:43:35;20.73;;;13.77;;
54657;SDS011;56972;43.886;20.354;2022-07-01T03:46:01;19.73;;;12.90;;
54657;SDS011;56972;43.886;20.354;2022-07-01T03:48:27;20.92;;;13.02;;
54657;SDS011;56972;43.886;20.354;2022-07-01T03:50:53;24.80;;;14.27;;
54657;SDS011;56972;43.886;20.354;2022-07-01T03:53:19;20.17;;;14.50;;
54657;SDS011;56972;43.886;20.354;2022-07-01T03:56:03;15.20;;;13.63;;
54657;SDS011;56972;43.886;20.354;2022-07-01T03:58:30;19.92;;;13.88;;
54657;SDS011;56972;43.886;20.354;2022-07-01T04:00:56;20.90;;;12.55;;
54657;SDS011;56972;43.886;20.354;2022-07-01T04:03:22;24.48;;;13.27;;
54657;SDS011;56972;43.886;20.354;2022-07-01T04:05:48;22.10;;;15.27;;
54657;SDS011;56972;43.886;20.354;2022-07-01T04:08:14;24.35;;;14.30;;
54657;SDS011;56972;43.886;20.354;2022-07-01T04:10:40;27.08;;;14.60;;
54657;SDS011;56972;43.886;20.354;2022-07-01T04:13:06;28.70;;;13.85;;
54657;SDS011;56972;43.886;20.354;2022-07-01T04:15:32;19.83;;;12.82;;
54657;SDS011;56972;43.886;20.354;2022-07-01T04:17:59;21.70;;;13.93;;
54657;SDS011;56972;43.886;20.354;2022-07-01T04:20:25;24.63;;;12.93;;
54657;SDS011;56972;43.886;20.354;2022-07-01T04:22:51;25.45;;;13.85;;
54657;SDS011;56972;43.886;20.354;2022-07-01T04:25:17;21.75;;;14.63;;
54657;SDS011;56972;43.886;20.354;2022-07-01T04:27:43;23.48;;;14.20;;
54657;SDS011;56972;43.886;20.354;2022-07-01T04:30:09;24.10;;;15.60;;
54657;SDS011;56972;43.886;20.354;2022-07-01T04:32:36;25.40;;;14.23;;
54657;SDS011;56972;43.886;20.354;2022-07-01T04:35:03;25.88;;;16.05;;
54657;SDS011;56972;43.886;20.354;2022-07-01T04:37:29;18.92;;;13.40;;
54657;SDS011;56972;43.886;20.354;2022-07-01T04:39:55;24.45;;;14.13;;
54657;SDS011;56972;43.886;20.354;2022-07-01T04:42:21;19.75;;;13.65;;
54657;SDS011;56972;43.886;20.354;2022-07-01T04:44:47;21.33;;;12.80;;
54657;SDS011;56972;43.886;20.354;2022-07-01T04:47:14;24.20;;;13.20;;
54657;SDS011;56972;43.886;20.354;2022-07-01T04:49:40;25.55;;;12.13;;
54657;SDS011;56972;43.886;20.354;2022-07-01T04:52:06;20.50;;;12.07;;
54657;SDS011;56972;43.886;20.354;2022-07-01T04:54:32;31.52;;;12.07;;
54657;SDS011;56972;43.886;20.354;2022-07-01T04:56:58;15.88;;;11.27;;
54657;SDS011;56972;43.886;20.354;2022-07-01T04:59:24;15.63;;;11.23;;
54657;SDS011;56972;43.886;20.354;2022-07-01T05:01:50;22.10;;;12.75;;
54657;SDS011;56972;43.886;20.354;2022-07-01T05:04:16;24.85;;;12.68;;
54657;SDS011;56972;43.886;20.354;2022-07-01T05:06:43;22.73;;;13.20;;
54657;SDS011;56972;43.886;20.354;2022-07-01T05:09:09;17.15;;;12.05;;
54657;SDS011;56972;43.886;20.354;2022-07-01T05:11:36;25.02;;;11.68;;
54657;SDS011;56972;43.886;20.354;2022-07-01T05:14:02;19.27;;;12.07;;
54657;SDS011;56972;43.886;20.354;2022-07-01T05:16:28;19.08;;;10.68;;
54657;SDS011;56972;43.886;20.354;2022-07-01T05:18:54;16.67;;;10.30;;
54657;SDS011;56972;43.886;20.354;2022-07-01T05:21:38;25.50;;;12.75;;
54657;SDS011;56972;43.886;20.354;2022-07-01T05:24:25;21.17;;;12.02;;
54657;SDS011;56972;43.886;20.354;2022-07-01T05:26:53;23.35;;;13.18;;
54657;SDS011;56972;43.886;20.354;2022-07-01T05:29:19;22.30;;;12.73;;
54657;SDS011;56972;43.886;20.354;2022-07-01T05:31:45;24.65;;;12.82;;
54657;SDS011;56972;43.886;20.354;2022-07-01T05:34:11;28.50;;;15.05;;
54657;SDS011;56972;43.886;20.354;2022-07-01T05:36:37;23.05;;;15.18;;
54657;SDS011;56972;43.886;20.354;2022-07-01T05:39:03;28.38;;;14.40;;
54657;SDS011;56972;43.886;20.354;2022-07-01T05:41:29;19.58;;;13.90;;
54657;SDS011;56972;43.886;20.354;2022-07-01T05:43:56;23.80;;;16.27;;
54657;SDS011;56972;43.886;20.354;2022-07-01T05:46:22;27.90;;;14.75;;
54657;SDS011;56972;43.886;20.354;2022-07-01T05:48:48;31.00;;;16.13;;
54657;SDS011;56972;43.886;20.354;2022-07-01T05:51:14;27.33;;;14.35;;
54657;SDS011;56972;43.886;20.354;2022-07-01T05:53:40;31.85;;;17.85;;
54657;SDS011;56972;43.886;20.354;2022-07-01T05:56:08;26.98;;;13.50;;
54657;SDS011;56972;43.886;20.354;2022-07-01T05:58:34;25.10;;;13.38;;
54657;SDS011;56972;43.886;20.354;2022-07-01T06:01:00;25.60;;;15.07;;
54657;SDS011;56972;43.886;20.354;2022-07-01T06:03:26;22.40;;;13.60;;
54657;SDS011;56972;43.886;20.354;2022-07-01T06:05:52;24.90;;;13.68;;
54657;SDS011;56972;43.886;20.354;2022-07-01T06:08:17;38.90;;;28.20;;
54657;SDS011;56972;43.886;20.354;2022-07-01T06:10:43;42.45;;;33.95;;
54657;SDS011;56972;43.886;20.354;2022-07-01T06:13:09;24.52;;;14.15;;
54657;SDS011;56972;43.886;20.354;2022-07-01T06:15:35;50.65;;;45.00;;
54657;SDS011;56972;43.886;20.354;2022-07-01T06:18:01;31.02;;;22.13;;
54657;SDS011;56972;43.886;20.354;2022-07-01T06:20:27;33.42;;;21.63;;
54657;SDS011;56972;43.886;20.354;2022-07-01T06:22:53;51.13;;;45.00;;
54657;SDS011;56972;43.886;20.354;2022-07-01T06:25:18;37.45;;;27.30;;
54657;SDS011;56972;43.886;20.354;2022-07-01T06:27:44;22.10;;;11.75;;
54657;SDS011;56972;43.886;20.354;2022-07-01T06:30:10;18.35;;;10.45;;
54657;SDS011;56972;43.886;20.354;2022-07-01T06:32:37;18.17;;;9.20;;
54657;SDS011;56972;43.886;20.354;2022-07-01T06:35:03;21.38;;;11.45;;
54657;SDS011;56972;43.886;20.354;2022-07-01T06:37:29;15.68;;;8.88;;
54657;SDS011;56972;43.886;20.354;2022-07-01T06:39:58;20.52;;;10.77;;
54657;SDS011;56972;43.886;20.354;2022-07-01T06:42:33;24.65;;;10.35;;
54657;SDS011;56972;43.886;20.354;2022-07-01T06:44:59;22.95;;;10.25;;
54657;SDS011;56972;43.886;20.354;2022-07-01T06:47:25;17.73;;;8.68;;
54657;SDS011;56972;43.886;20.354;2022-07-01T06:49:50;15.77;;;9.35;;
54657;SDS011;56972;43.886;20.354;2022-07-01T06:52:16;16.85;;;9.48;;
54657;SDS011;56972;43.886;20.354;2022-07-01T06:54:42;19.20;;;7.78;;
54657;SDS011;56972;43.886;20.354;2022-07-01T06:57:08;18.80;;;9.52;;
54657;SDS011;56972;43.886;20.354;2022-07-01T06:59:34;12.13;;;7.68;;
54657;SDS011;56972;43.886;20.354;2022-07-01T07:02:00;17.42;;;9.30;;
54657;SDS011;56972;43.886;20.354;2022-07-01T07:04:26;17.33;;;8.18;;
54657;SDS011;56972;43.886;20.354;2022-07-01T07:06:52;17.90;;;8.95;;
54657;SDS011;56972;43.886;20.354;2022-07-01T07:09:18;11.95;;;8.20;;
54657;SDS011;56972;43.886;20.354;2022-07-01T07:11:43;19.92;;;9.63;;
54657;SDS011;56972;43.886;20.354;2022-07-01T07:14:09;19.65;;;8.60;;
54657;SDS011;56972;43.886;20.354;2022-07-01T07:16:35;16.05;;;8.60;;
54657;SDS011;56972;43.886;20.354;2022-07-01T07:19:00;16.23;;;8.18;;
54657;SDS011;56972;43.886;20.354;2022-07-01T07:21:26;20.63;;;9.07;;
54657;SDS011;56972;43.886;20.354;2022-07-01T07:23:52;16.17;;;9.15;;
54657;SDS011;56972;43.886;20.354;2022-07-01T07:26:17;20.35;;;8.98;;
54657;SDS011;56972;43.886;20.354;2022-07-01T07:28:43;19.25;;;9.38;;
54657;SDS011;56972;43.886;20.354;2022-07-01T07:31:09;16.05;;;7.88;;
54657;SDS011;56972;43.886;20.354;2022-07-01T07:33:35;19.75;;;8.63;;
54657;SDS011;56972;43.886;20.354;2022-07-01T07:36:00;19.05;;;9.07;;
54657;SDS011;56972;43.886;20.354;2022-07-01T07:38:26;20.08;;;8.77;;
54657;SDS011;56972;43.886;20.354;2022-07-01T07:40:52;18.42;;;8.50;;
54657;SDS011;56972;43.886;20.354;2022-07-01T07:43:17;24.25;;;9.07;;
54657;SDS011;56972;43.886;20.354;2022-07-01T07:45:43;16.58;;;8.55;;
54657;SDS011;56972;43.886;20.354;2022-07-01T07:48:09;12.93;;;8.13;;
54657;SDS011;56972;43.886;20.354;2022-07-01T07:50:35;16.30;;;9.48;;
54657;SDS011;56972;43.886;20.354;2022-07-01T07:53:02;13.18;;;7.38;;
54657;SDS011;56972;43.886;20.354;2022-07-01T07:55:28;16.25;;;8.75;;
54657;SDS011;56972;43.886;20.354;2022-07-01T07:57:54;18.90;;;8.50;;
54657;SDS011;56972;43.886;20.354;2022-07-01T08:00:20;14.85;;;8.10;;
54657;SDS011;56972;43.886;20.354;2022-07-01T08:02:47;17.60;;;8.10;;
54657;SDS011;56972;43.886;20.354;2022-07-01T08:05:13;14.80;;;8.55;;
54657;SDS011;56972;43.886;20.354;2022-07-01T08:07:40;16.45;;;8.23;;
54657;SDS011;56972;43.886;20.354;2022-07-01T08:10:08;13.48;;;7.97;;
54657;SDS011;56972;43.886;20.354;2022-07-01T08:12:34;24.20;;;8.93;;
54657;SDS011;56972;43.886;20.354;2022-07-01T08:15:00;18.30;;;8.27;;
54657;SDS011;56972;43.886;20.354;2022-07-01T08:17:26;15.68;;;7.70;;
54657;SDS011;56972;43.886;20.354;2022-07-01T08:19:52;17.00;;;8.05;;
54657;SDS011;56972;43.886;20.354;2022-07-01T08:22:18;15.27;;;7.57;;
54657;SDS011;56972;43.886;20.354;2022-07-01T08:24:45;17.77;;;7.90;;
54657;SDS011;56972;43.886;20.354;2022-07-01T08:27:11;18.08;;;8.35;;
54657;SDS011;56972;43.886;20.354;2022-07-01T08:29:40;17.15;;;6.68;;
54657;SDS011;56972;43.886;20.354;2022-07-01T08:32:06;16.77;;;6.95;;
54657;SDS011;56972;43.886;20.354;2022-07-01T08:34:33;16.52;;;7.15;;
54657;SDS011;56972;43.886;20.354;2022-07-01T08:37:00;13.65;;;7.40;;
54657;SDS011;56972;43.886;20.354;2022-07-01T08:39:26;26.95;;;8.27;;
54657;SDS011;56972;43.886;20.354;2022-07-01T08:41:52;22.85;;;7.57;;
54657;SDS011;56972;43.886;20.354;2022-07-01T08:44:18;12.20;;;6.30;;
54657;SDS011;56972;43.886;20.354;2022-07-01T08:46:45;17.60;;;7.85;;
54657;SDS011;56972;43.886;20.354;2022-07-01T08:49:11;11.48;;;6.97;;
54657;SDS011;56972;43.886;20.354;2022-07-01T08:51:38;13.95;;;7.95;;
54657;SDS011;56972;43.886;20.354;2022-07-01T08:54:04;16.83;;;7.47;;
54657;SDS011;56972;43.886;20.354;2022-07-01T08:56:30;14.50;;;7.63;;
54657;SDS011;56972;43.886;20.354;2022-07-01T08:59:13;16.77;;;7.35;;
54657;SDS011;56972;43.886;20.354;2022-07-01T09:01:46;16.13;;;7.35;;
54657;SDS011;56972;43.886;20.354;2022-07-01T09:04:20;13.23;;;6.68;;
54657;SDS011;56972;43.886;20.354;2022-07-01T09:06:47;21.40;;;7.28;;
54657;SDS011;56972;43.886;20.354;2022-07-01T09:09:14;16.38;;;6.68;;
54657;SDS011;56972;43.886;20.354;2022-07-01T09:11:47;12.82;;;7.50;;
54657;SDS011;56972;43.886;20.354;2022-07-01T09:14:18;12.70;;;6.45;;
54657;SDS011;56972;43.886;20.354;2022-07-01T09:16:46;12.60;;;6.57;;
54657;SDS011;56972;43.886;20.354;2022-07-01T09:19:14;12.75;;;6.72;;
54657;SDS011;56972;43.886;20.354;2022-07-01T09:21:40;11.68;;;6.32;;
54657;SDS011;56972;43.886;20.354;2022-07-01T09:26:56;15.13;;;6.32;;
54657;SDS011;56972;43.886;20.354;2022-07-01T09:29:32;18.33;;;6.60;;
54657;SDS011;56972;43.886;20.354;2022-07-01T09:32:03;15.10;;;6.05;;
54657;SDS011;56972;43.886;20.354;2022-07-01T09:34:33;19.55;;;7.07;;
54657;SDS011;56972;43.886;20.354;2022-07-01T09:37:00;16.05;;;6.72;;
54657;SDS011;56972;43.886;20.354;2022-07-01T09:39:28;15.23;;;6.85;;
54657;SDS011;56972;43.886;20.354;2022-07-01T09:41:55;15.55;;;6.55;;
54657;SDS011;56972;43.886;20.354;2022-07-01T09:44:21;14.05;;;6.38;;
54657;SDS011;56972;43.886;20.354;2022-07-01T09:46:57;14.23;;;6.95;;
54657;SDS011;56972;43.886;20.354;2022-07-01T09:49:23;17.48;;;7.32;;
54657;SDS011;56972;43.886;20.354;2022-07-01T09:51:52;7.32;;;5.35;;
54657;SDS011;56972;43.886;20.354;2022-07-01T09:54:18;17.67;;;6.88;;
54657;SDS011;56972;43.886;20.354;2022-07-01T09:56:44;12.55;;;6.13;;
54657;SDS011;56972;43.886;20.354;2022-07-01T09:59:10;14.63;;;6.72;;
54657;SDS011;56972;43.886;20.354;2022-07-01T10:01:37;17.13;;;9.25;;
54657;SDS011;56972;43.886;20.354;2022-07-01T10:04:03;20.70;;;8.18;;
54657;SDS011;56972;43.886;20.354;2022-07-01T10:14:41;14.07;;;5.82;;
54657;SDS011;56972;43.886;20.354;2022-07-01T10:17:08;9.02;;;5.95;;
54657;SDS011;56972;43.886;20.354;2022-07-01T10:19:34;12.65;;;6.93;;
54657;SDS011;56972;43.886;20.354;2022-07-01T10:22:00;17.73;;;7.30;;
54657;SDS011;56972;43.886;20.354;2022-07-01T10:24:46;13.55;;;6.10;;
54657;SDS011;56972;43.886;20.354;2022-07-01T10:27:19;14.80;;;6.80;;
54657;SDS011;56972;43.886;20.354;2022-07-01T10:29:47;11.50;;;6.78;;
54657;SDS011;56972;43.886;20.354;2022-07-01T10:34:47;15.85;;;6.57;;
54657;SDS011;56972;43.886;20.354;2022-07-01T10:37:14;14.93;;;6.18;;
54657;SDS011;56972;43.886;20.354;2022-07-01T10:40:00;12.23;;;6.25;;
54657;SDS011;56972;43.886;20.354;2022-07-01T10:42:28;11.25;;;6.13;;
54657;SDS011;56972;43.886;20.354;2022-07-01T10:44:59;13.45;;;6.18;;
54657;SDS011;56972;43.886;20.354;2022-07-01T10:47:29;20.33;;;6.70;;
54657;SDS011;56972;43.886;20.354;2022-07-01T10:49:59;13.68;;;6.28;;
54657;SDS011;56972;43.886;20.354;2022-07-01T10:52:30;13.77;;;6.45;;
54657;SDS011;56972;43.886;20.354;2022-07-01T10:54:57;16.02;;;6.30;;
54657;SDS011;56972;43.886;20.354;2022-07-01T10:57:33;12.93;;;5.72;;
54657;SDS011;56972;43.886;20.354;2022-07-01T11:02:29;8.43;;;6.40;;
54657;SDS011;56972;43.886;20.354;2022-07-01T11:04:57;11.43;;;5.55;;
54657;SDS011;56972;43.886;20.354;2022-07-01T11:07:28;22.30;;;6.93;;
54657;SDS011;56972;43.886;20.354;2022-07-01T11:09:56;16.48;;;6.43;;
54657;SDS011;56972;43.886;20.354;2022-07-01T11:12:22;15.20;;;6.10;;
54657;SDS011;56972;43.886;20.354;2022-07-01T11:14:49;11.40;;;5.93;;
54657;SDS011;56972;43.886;20.354;2022-07-01T11:17:15;12.65;;;6.82;;
54657;SDS011;56972;43.886;20.354;2022-07-01T11:19:42;10.85;;;5.90;;
54657;SDS011;56972;43.886;20.354;2022-07-01T11:22:21;19.17;;;6.90;;
54657;SDS011;56972;43.886;20.354;2022-07-01T11:24:51;13.80;;;5.88;;
54657;SDS011;56972;43.886;20.354;2022-07-01T11:27:21;16.63;;;6.93;;
54657;SDS011;56972;43.886;20.354;2022-07-01T11:29:55;17.10;;;6.53;;
54657;SDS011;56972;43.886;20.354;2022-07-01T11:32:23;19.10;;;7.45;;
54657;SDS011;56972;43.886;20.354;2022-07-01T11:34:54;21.52;;;7.60;;
54657;SDS011;56972;43.886;20.354;2022-07-01T11:37:21;18.42;;;7.18;;
54657;SDS011;56972;43.886;20.354;2022-07-01T11:40:09;14.13;;;5.85;;
54657;SDS011;56972;43.886;20.354;2022-07-01T11:42:36;13.68;;;6.13;;
54657;SDS011;56972;43.886;20.354;2022-07-01T11:45:02;11.68;;;5.85;;
54657;SDS011;56972;43.886;20.354;2022-07-01T11:47:28;21.20;;;6.57;;
54657;SDS011;56972;43.886;20.354;2022-07-01T11:49:54;14.40;;;6.47;;
54657;SDS011;56972;43.886;20.354;2022-07-01T11:52:21;11.95;;;6.30;;
54657;SDS011;56972;43.886;20.354;2022-07-01T11:54:48;13.13;;;6.15;;
54657;SDS011;56972;43.886;20.354;2022-07-01T11:59:45;10.35;;;5.40;;
54657;SDS011;56972;43.886;20.354;2022-07-01T12:02:14;12.30;;;6.05;;
54657;SDS011;56972;43.886;20.354;2022-07-01T12:04:42;22.45;;;6.45;;
54657;SDS011;56972;43.886;20.354;2022-07-01T12:07:08;17.17;;;5.75;;
54657;SDS011;56972;43.886;20.354;2022-07-01T12:09:36;16.23;;;5.65;;
54657;SDS011;56972;43.886;20.354;2022-07-01T12:12:02;10.68;;;5.90;;
54657;SDS011;56972;43.886;20.354;2022-07-01T12:14:30;9.98;;;5.45;;
54657;SDS011;56972;43.886;20.354;2022-07-01T12:17:04;9.93;;;4.55;;
54657;SDS011;56972;43.886;20.354;2022-07-01T12:19:41;15.45;;;5.22;;
54657;SDS011;56972;43.886;20.354;2022-07-01T12:22:10;9.55;;;5.25;;
54657;SDS011;56972;43.886;20.354;2022-07-01T12:24:37;12.60;;;5.50;;
54657;SDS011;56972;43.886;20.354;2022-07-01T12:27:05;12.00;;;4.82;;
54657;SDS011;56972;43.886;20.354;2022-07-01T12:32:25;11.65;;;5.35;;
54657;SDS011;56972;43.886;20.354;2022-07-01T12:34:54;15.93;;;5.22;;
54657;SDS011;56972;43.886;20.354;2022-07-01T12:39:57;12.52;;;5.57;;
54657;SDS011;56972;43.886;20.354;2022-07-01T12:45:04;13.68;;;5.97;;
54657;SDS011;56972;43.886;20.354;2022-07-01T12:47:33;12.38;;;5.65;;
54657;SDS011;56972;43.886;20.354;2022-07-01T12:50:10;11.82;;;5.60;;
54657;SDS011;56972;43.886;20.354;2022-07-01T12:52:39;11.98;;;5.28;;
54657;SDS011;56972;43.886;20.354;2022-07-01T12:55:14;12.70;;;5.88;;
54657;SDS011;56972;43.886;20.354;2022-07-01T12:57:41;14.63;;;5.40;;
54657;SDS011;56972;43.886;20.354;2022-07-01T13:00:07;9.85;;;4.30;;
54657;SDS011;56972;43.886;20.354;2022-07-01T13:02:33;13.10;;;5.93;;
54657;SDS011;56972;43.886;20.354;2022-07-01T13:04:59;12.40;;;4.63;;
54657;SDS011;56972;43.886;20.354;2022-07-01T13:07:24;12.80;;;5.22;;
54657;SDS011;56972;43.886;20.354;2022-07-01T13:09:50;12.65;;;6.53;;
54657;SDS011;56972;43.886;20.354;2022-07-01T13:12:16;11.25;;;5.15;;
54657;SDS011;56972;43.886;20.354;2022-07-01T13:14:42;10.85;;;5.25;;
54657;SDS011;56972;43.886;20.354;2022-07-01T13:17:09;20.33;;;6.57;;
54657;SDS011;56972;43.886;20.354;2022-07-01T13:19:34;10.98;;;5.50;;
54657;SDS011;56972;43.886;20.354;2022-07-01T13:22:04;10.75;;;5.30;;
54657;SDS011;56972;43.886;20.354;2022-07-01T13:24:29;13.20;;;4.85;;
54657;SDS011;56972;43.886;20.354;2022-07-01T13:26:55;9.77;;;4.45;;
54657;SDS011;56972;43.886;20.354;2022-07-01T13:29:21;12.10;;;4.85;;
54657;SDS011;56972;43.886;20.354;2022-07-01T13:31:47;16.50;;;4.78;;
54657;SDS011;56972;43.886;20.354;2022-07-01T13:34:15;11.70;;;4.90;;
54657;SDS011;56972;43.886;20.354;2022-07-01T13:36:41;10.10;;;4.97;;
54657;SDS011;56972;43.886;20.354;2022-07-01T13:39:07;14.55;;;4.50;;
54657;SDS011;56972;43.886;20.354;2022-07-01T13:41:34;9.65;;;4.35;;
54657;SDS011;56972;43.886;20.354;2022-07-01T13:43:59;8.20;;;5.00;;
54657;SDS011;56972;43.886;20.354;2022-07-01T13:46:25;16.15;;;5.10;;
54657;SDS011;56972;43.886;20.354;2022-07-01T13:48:51;10.27;;;4.53;;
54657;SDS011;56972;43.886;20.354;2022-07-01T13:51:17;11.98;;;4.68;;
54657;SDS011;56972;43.886;20.354;2022-07-01T13:53:42;8.98;;;4.15;;
54657;SDS011;56972;43.886;20.354;2022-07-01T13:56:11;16.65;;;5.85;;
54657;SDS011;56972;43.886;20.354;2022-07-01T13:58:36;8.55;;;3.85;;
54657;SDS011;56972;43.886;20.354;2022-07-01T14:01:04;11.93;;;5.00;;
54657;SDS011;56972;43.886;20.354;2022-07-01T14:03:30;7.50;;;4.47;;
54657;SDS011;56972;43.886;20.354;2022-07-01T14:05:56;7.15;;;3.72;;
54657;SDS011;56972;43.886;20.354;2022-07-01T14:08:22;9.77;;;4.60;;
54657;SDS011;56972;43.886;20.354;2022-07-01T14:10:48;10.07;;;4.18;;
54657;SDS011;56972;43.886;20.354;2022-07-01T14:13:15;13.70;;;5.13;;
54657;SDS011;56972;43.886;20.354;2022-07-01T14:15:41;8.85;;;4.68;;
54657;SDS011;56972;43.886;20.354;2022-07-01T14:18:09;11.88;;;4.35;;
54657;SDS011;56972;43.886;20.354;2022-07-01T14:20:35;9.30;;;5.07;;
54657;SDS011;56972;43.886;20.354;2022-07-01T14:23:01;11.23;;;4.72;;
54657;SDS011;56972;43.886;20.354;2022-07-01T14:25:27;10.52;;;5.22;;
54657;SDS011;56972;43.886;20.354;2022-07-01T14:27:53;11.82;;;4.65;;
54657;SDS011;56972;43.886;20.354;2022-07-01T14:30:19;10.55;;;4.90;;
54657;SDS011;56972;43.886;20.354;2022-07-01T14:32:45;7.10;;;3.70;;
54657;SDS011;56972;43.886;20.354;2022-07-01T14:35:11;15.40;;;4.90;;
54657;SDS011;56972;43.886;20.354;2022-07-01T14:37:37;7.78;;;3.45;;
54657;SDS011;56972;43.886;20.354;2022-07-01T14:40:05;10.63;;;3.90;;
54657;SDS011;56972;43.886;20.354;2022-07-01T14:42:31;12.23;;;3.95;;
54657;SDS011;56972;43.886;20.354;2022-07-01T14:44:57;12.15;;;3.88;;